createdAt,value
2023-03-23T16:02:06.537Z,16.28
2023-03-23T16:07:00.318Z,16.33
2023-03-23T16:11:53.739Z,16.30
2023-03-23T16:16:52.889Z,16.15
2023-03-23T16:21:46.405Z,16.16
2023-03-23T16:26:41.167Z,16.16
2023-03-23T16:31:34.493Z,16.05
2023-03-23T16:36:29.264Z,16.05
2023-03-23T16:41:22.678Z,15.96
2023-03-23T16:46:16.194Z,15.80
2023-03-23T16:51:10.299Z,15.89
2023-03-23T16:56:05.949Z,15.72
2023-03-23T17:00:59.251Z,15.59
2023-03-23T17:05:54.335Z,15.48
2023-03-23T17:10:48.372Z,15.35
2023-03-23T17:15:57.295Z,15.29
2023-03-23T17:20:53.890Z,15.22
2023-03-23T17:25:50.496Z,15.16
2023-03-23T17:30:46.327Z,15.12
2023-03-23T17:35:40.397Z,15.05
2023-03-23T17:40:34.635Z,15.02
2023-03-23T17:45:28.019Z,14.97
2023-03-23T17:50:23.020Z,14.88
2023-03-23T17:55:16.453Z,14.82
2023-03-23T18:00:12.152Z,14.73
2023-03-23T18:05:09.277Z,14.70
2023-03-23T18:10:11.664Z,14.63
2023-03-23T18:15:06.122Z,14.59
2023-03-23T18:19:59.570Z,14.51
2023-03-23T18:24:52.928Z,14.43
2023-03-23T18:29:47.835Z,14.38
2023-03-23T18:34:43.048Z,14.39
2023-03-23T18:39:37.024Z,14.34
2023-03-23T18:44:30.468Z,14.34
2023-03-23T18:49:26.812Z,14.31
2023-03-23T18:54:20.228Z,14.30
2023-03-23T18:59:13.638Z,14.29
2023-03-23T19:04:07.245Z,14.33
2023-03-23T19:09:02.127Z,14.37
2023-03-23T19:14:02.065Z,14.38
2023-03-23T19:18:56.029Z,14.34
2023-03-23T19:23:49.553Z,14.33
2023-03-23T19:29:19.231Z,14.28
2023-03-23T19:33:57.676Z,14.19
2023-03-23T19:38:51.824Z,14.18
2023-03-23T19:43:46.753Z,14.21
2023-03-23T19:48:40.478Z,14.19
2023-03-23T19:53:34.829Z,14.15
2023-03-23T19:58:28.681Z,14.19
2023-03-23T20:03:24.089Z,14.11
2023-03-23T20:08:17.906Z,13.94
2023-03-23T20:13:14.801Z,13.87
2023-03-23T20:18:08.455Z,13.73
2023-03-23T20:23:04.292Z,13.78
2023-03-23T20:27:57.655Z,13.75
2023-03-23T20:32:52.023Z,13.77
2023-03-23T20:37:45.733Z,13.69
2023-03-23T20:42:43.965Z,13.66
2023-03-23T20:47:38.725Z,13.44
2023-03-23T20:52:32.541Z,13.40
2023-03-23T20:57:32.185Z,13.34
2023-03-23T21:02:29.922Z,13.31
2023-03-23T21:07:25.879Z,13.24
2023-03-23T21:12:19.255Z,13.21
2023-03-23T21:17:12.846Z,13.13
2023-03-23T21:22:09.795Z,13.20
2023-03-23T21:27:03.532Z,13.09
2023-03-23T21:36:54.551Z,13.10
2023-03-23T21:41:50.089Z,12.98
2023-03-23T21:46:43.823Z,12.97
2023-03-23T21:51:38.991Z,12.98
2023-03-23T21:56:32.507Z,13.02
2023-03-23T22:01:28.295Z,12.81
2023-03-23T22:06:26.781Z,12.56
2023-03-23T22:11:24.290Z,12.42
2023-03-23T22:16:20.071Z,12.42
2023-03-23T22:21:16.987Z,12.42
2023-03-23T22:26:12.711Z,12.45
2023-03-23T22:31:09.478Z,12.37
2023-03-23T22:36:06.324Z,12.32
2023-03-23T22:41:02.506Z,12.03
2023-03-23T22:45:56.085Z,11.82
2023-03-23T22:50:50.520Z,11.88
2023-03-23T22:55:45.728Z,11.91
2023-03-23T23:00:45.445Z,11.58
2023-03-23T23:05:43.828Z,11.60
2023-03-23T23:10:37.543Z,11.20
2023-03-23T23:15:31.113Z,11.10
2023-03-23T23:20:26.053Z,11.01
2023-03-23T23:25:20.014Z,11.18
2023-03-23T23:30:14.670Z,11.41
2023-03-23T23:35:08.699Z,11.62
2023-03-23T23:40:06.537Z,11.72
2023-03-23T23:45:00.153Z,11.63
2023-03-23T23:49:53.722Z,11.47
2023-03-23T23:54:48.264Z,11.58
2023-03-23T23:59:43.300Z,11.59
